Glenshire Elementary, Truckee, California Weather observations

Data are for observation ending at time listed.
 Day   Time    Ave.   Ave.  Ave.  Vector   Max.   Stn.    Total    Solar   Ave.   Snow 
  of    of     Air    Rel.  Wind   Wind    Wind   Baro.  Precip.   Rad.    Soil   Depth
Year   Day     Temp.  Hum.  Speed  Dir.    Gust   Pres.                    Temp.       
2014   (PST)    F      %     mph   deg.    mph     mb.     in.     W/m2     F      in. 
---------------------------------------------------------------------------------------  
 261   10:20   68.5    38    3.3    78      9.6   817.3    0.00     677    62.6   999.0
 261   10:30   69.4    36    4.6    88     13.0   817.3    0.00     757    62.6   999.0
 261   10:40   67.2    38    4.8    76     13.0   817.4    0.00     484    62.6   999.0
 261   10:50   66.1    39    3.1    72      9.6   817.6    0.00     336    62.7   999.0
 261   11:00   65.9    39    4.0    79     11.3   817.6    0.00     282    62.7   999.0
 261   11:10   65.4    40    3.8    72     10.5   817.6    0.00     190    62.7   999.0
 261   11:20   64.4    42    4.5    75     13.8   817.6    0.00     221    62.7   999.0
 261   11:30   63.8    47    3.3    76      9.6   817.6    0.00     209    62.7   999.0
 261   11:40   63.3    48    2.8    80      8.0   817.6    0.00     146    62.7   999.0
 261   11:50   64.0    48    4.6    75     12.1   817.5    0.00     438    62.7   999.0
 261   12:00   64.0    46    4.7    75     11.3   817.5    0.00     290    62.7   999.0
 261   12:10   64.8    48    6.8    76     13.8   817.5    0.00     511    62.7   999.0
 261   12:20   65.1    47    6.1    79     13.0   817.5    0.00     589    62.7   999.0
 261   12:30   65.8    46    6.6    76     13.8   817.6    0.00     566    62.7   999.0
 261   12:40   65.9    45    6.3    76     15.5   817.6    0.00     577    62.7   999.0
 261   12:50   65.3    46    5.8    82     13.0   817.6    0.00     345    62.7   999.0
 261   13:00   64.5    47    5.8    72     13.8   817.6    0.00     293    62.7   999.0
 261   13:10   63.5    48    5.9    78     12.1   817.6    0.00     188    62.7   999.0
 261   13:20   64.6    47    5.9    75     13.0   817.5    0.00     484    62.7   999.0
 261   13:30   64.7    47    7.2    73     15.5   817.4    0.00     381    62.7   999.0
 261   13:40   64.5    47    6.6    74     14.7   817.4    0.00     508    62.7   999.0
 261   13:50   64.9    46    6.6    76     14.7   817.4    0.00     510    62.7   999.0
 261   14:00   65.7    45    5.4    79     18.0   817.4    0.00     479    62.7   999.0
 261   14:10   65.4    46    6.2    76     13.8   817.3    0.00     471    62.7   999.0
 261   14:20   64.4    48    7.6    70     17.2   817.3    0.00     382    62.7   999.0
 261   14:30   64.7    47    4.6    78     11.3   817.4    0.00     400    62.7   999.0
 261   14:40   65.7    46    3.4    67     14.7   817.4    0.00     386    62.6   999.0
 261   14:50   64.7    48    6.1    74     15.5   817.4    0.00     388    62.6   999.0
 261   15:00   64.2    48    5.5    72     13.0   817.4    0.00     359    62.6   999.0
 261   15:10   64.1    48    6.9    74     17.2   817.5    0.00     324    62.6   999.0
 261   15:20   64.0    48    6.5    71     14.7   817.4    0.00     322    62.7   999.0
 261   15:30   64.7    46    4.4    74      9.6   817.5    0.00     296    62.7   999.0
 261   15:40   64.6    46    5.3    69     14.7   817.4    0.00     257    62.7   999.0
 261   15:50   63.8    48    5.5    73     13.0   817.5    0.00     257    62.7   999.0
 261   16:00   63.2    49    6.0    71     13.8   817.5    0.00     230    62.7   999.0
 261   16:10   63.0    50    4.6    76     14.7   817.6    0.00     198    62.7   999.0
 261   16:20   62.0    52    4.9    71     12.1   817.6    0.00     184    62.7   999.0
 261   16:30   61.9    53    4.6    72     12.1   817.6    0.00     180    62.6   999.0
 261   16:40   62.3    53    0.8    79      5.4   817.8    0.00     129    62.6   999.0
 261   16:50   62.5    53    0.5    66      3.8   817.9    0.00     109    62.7   999.0
 261   17:00   62.3    54    0.4    36      2.1   817.9    0.00      65    62.7   999.0
 261   17:10   62.2    54    0.5    38      2.1   817.8    0.00      63    62.7   999.0
 261   17:20   61.1    56    0.6    14      6.3   817.8    0.00      42    62.7   999.0
 261   17:30   60.2    57    0.4    56      2.1   817.9    0.00       1    62.7   999.0
 261   17:40   59.5    59    0.4   309      0.4   818.0    0.00       0    62.7   999.0
 261   17:50   59.1    60    0.4   281      0.4   818.1    0.00       0    62.7   999.0
 261   18:00   58.3    62    0.4   341      0.4   818.1    0.00       0    62.7   999.0
 261   18:10   57.8    63    0.4   267      0.4   818.2    0.00       0    62.7   999.0
 261   18:20   57.1    65    0.4   257      0.4   818.2    0.00       0    62.7   999.0
 261   18:30   56.1    67    0.4   257      0.4   818.4    0.00       0    62.7   999.0
 261   18:40   55.4    68    0.4   257      0.4   818.5    0.00       0    62.7   999.0
 261   18:50   54.7    69    0.4   257      0.4   818.5    0.00       0    62.7   999.0
 261   19:00   54.1    69    0.4   255      0.4   818.7    0.00       0    62.7   999.0
 261   19:10   53.7    70    0.4   246      0.4   818.8    0.00       0    62.7   999.0
 261   19:20   53.1    71    0.4   237      0.4   818.9    0.00       0    62.7   999.0
 261   19:30   51.8    74    0.4    87      0.4   819.0    0.00       0    62.7   999.0
 261   19:40   51.5    75    0.4    72      0.4   819.3    0.00       0    62.7   999.0
 261   19:50   51.5    73    0.4    64      0.4   819.3    0.00       0    62.7   999.0
 261   20:00   51.3    73    0.4   332      0.4   819.5    0.00       0    62.7   999.0
 261   20:10   51.0    73    0.4   291      0.4   819.5    0.00       0    62.7   999.0
 261   20:20   50.5    74    0.4   252      0.4   819.5    0.00       0    62.7   999.0
 261   20:30   50.1    75    0.4   207      0.4   819.6    0.00       0    62.7   999.0
 261   20:40   49.6    76    0.4   254      0.4   819.6    0.00       0    62.7   999.0
 261   20:50   49.2    76    0.4   254      0.4   819.6    0.00       0    62.7   999.0
 261   21:00   49.0    76    0.6   187      2.9   819.9    0.00       0    62.7   999.0
 261   21:10   49.2    78    0.4   226      0.4   820.0    0.00       0    62.7   999.0
 261   21:20   48.5    79    0.4    33      0.4   820.0    0.00       0    62.7   999.0
 261   21:30   47.9    79    0.4   230      0.4   820.0    0.00       0    62.7   999.0
 261   21:40   47.4    80    0.4    88      0.4   820.1    0.00       0    62.7   999.0
 261   21:50   46.9    80    0.4    72      0.4   820.2    0.00       0    62.7   999.0
 261   22:00   46.6    82    0.4    72      0.4   820.2    0.00       0    62.7   999.0
 261   22:10   46.5    82    0.4    72      0.4   820.2    0.00       0    62.7   999.0
 261   22:20   46.3    83    0.4    72      0.4   820.3    0.00       0    62.7   999.0
 261   22:30   46.1    84    0.4    72      0.4   820.2    0.00       0    62.7   999.0
 261   22:40   46.3    83    0.4    68      0.4   820.3    0.00       0    62.7   999.0
 261   22:50   46.4    81    0.4    68      0.4   820.3    0.00       0    62.7   999.0
 261   23:00   46.2    83    0.4    68      0.4   820.3    0.00       0    62.7   999.0
 261   23:10   46.3    82    0.4    68      0.4   820.2    0.00       0    62.7   999.0
 261   23:20   46.1    82    0.4    68      0.4   820.2    0.00       0    62.7   999.0
 261   23:30   45.1    84    0.4    67      2.9   820.3    0.00       0    62.7   999.0
 261   23:40   45.1    84    0.4    69      0.4   820.2    0.00       0    62.7   999.0
 261   23:50   45.1    84    0.4    78      0.4   820.3    0.00       0    62.7   999.0
 262    0:00   44.8    84    0.4   116      0.4   820.3    0.00       0    62.7   999.0
 262    0:10   44.7    86    0.4   116      0.4   820.3    0.00       0    62.7   999.0
 262    0:20   44.7    86    0.4   160      0.4   820.5    0.00       0    62.7   999.0
 262    0:30   44.7    86    0.4   169      0.4   820.4    0.00       0    62.7   999.0
 262    0:40   44.4    85    0.4   227      0.4   820.4    0.00       0    62.7   999.0
 262    0:50   43.8    86    0.4    98      0.4   820.4    0.00       0    62.7   999.0
 262    1:00   43.5    88    0.4    88      0.4   820.5    0.00       0    62.7   999.0
 262    1:10   43.8    88    0.4    88      0.4   820.5    0.00       0    62.7   999.0
 262    1:20   43.5    88    0.4    88      0.4   820.5    0.00       0    62.7   999.0
 262    1:30   42.9    89    0.4    88      0.4   820.5    0.00       0    62.7   999.0
 262    1:40   42.7    89    0.4    88      0.4   820.5    0.00       0    62.7   999.0
 262    1:50   42.4    89    0.4    88      0.4   820.5    0.00       0    62.7   999.0
 262    2:00   42.2    89    0.4    88      0.4   820.6    0.00       0    62.7   999.0
 262    2:10   42.0    89    0.4    88      0.4   820.6    0.00       0    62.7   999.0
 262    2:20   41.3    89    0.4    88      0.4   820.6    0.00       0    62.7   999.0
 262    2:30   41.2    90    0.4    88      0.4   820.6    0.00       0    62.7   999.0
 262    2:40   41.4    90    0.4    88      0.4   820.5    0.00       0    62.7   999.0
 262    2:50   41.2    90    0.4    88      0.4   820.5    0.00       0    62.7   999.0
 262    3:00   41.0    90    0.4    88      0.4   820.5    0.00       0    62.7   999.0
 262    3:10   40.8    90    0.4    88      0.4   820.4    0.00       0    62.7   999.0
 262    3:20   40.0    91    0.4    88      0.4   820.5    0.00       0    62.7   999.0
 262    3:30   40.1    92    0.4    88      0.4   820.5    0.00       0    62.7   999.0
 262    3:40   40.0    92    0.4    88      0.4   820.4    0.00       0    62.7   999.0
 262    3:50   39.6    92    0.4    88      0.4   820.4    0.00       0    62.7   999.0
 262    4:00   39.3    92    0.4    88      0.4   820.5    0.00       0    62.7   999.0
 262    4:10   39.0    92    0.4    88      0.4   820.5    0.00       0    62.7   999.0
 262    4:20   38.6    92    0.4    85      0.4   820.6    0.00       0    62.7   999.0
 262    4:30   38.4    93    0.4    85      0.4   820.7    0.00       0    62.7   999.0
 262    4:40   38.8    93    0.4    85      0.4   820.7    0.00       0    62.7   999.0
 262    4:50   38.7    92    0.4   111      0.4   820.8    0.00       0    62.7   999.0
 262    5:00   38.6    92    0.4   288      0.4   820.8    0.00       0    62.7   999.0
 262    5:10   38.0    92    0.4    22      0.4   820.9    0.00       0    62.7   999.0
 262    5:20   38.0    93    0.4    96      0.4   821.0    0.00       0    62.7   999.0
 262    5:30   38.1    93    0.4   176      0.4   821.1    0.00       0    62.7   999.0
 262    5:40   38.1    92    0.4   214      0.4   821.1    0.00       0    62.7   999.0
 262    5:50   37.9    92    0.4   178      0.4   821.2    0.00       0    62.7   999.0
 262    6:00   37.6    92    0.4   174      0.4   821.3    0.00       0    62.7   999.0
 262    6:10   37.6    93    0.4   258      0.4   821.3    0.00       0    62.7   999.0
 262    6:20   36.7    92    0.4   314      0.4   821.4    0.00       0    62.7   999.0
 262    6:30   37.1    93    0.4    84      0.4   821.5    0.00      19    62.7   999.0
 262    6:40   38.0    93    0.4    84      0.4   821.5    0.00      64    62.7   999.0
 262    6:50   39.1    93    0.4    84      0.4   821.5    0.00      89    62.7   999.0
 262    7:00   39.7    92    0.4    84      0.4   821.5    0.00     129    62.7   999.0
 262    7:10   40.3    91    0.4    84      0.4   821.4    0.00     107    62.7   999.0
 262    7:20   40.1    90    0.4    71      0.4   821.5    0.00      64    62.7   999.0
 262    7:30   40.1    91    0.4    72      0.4   821.6    0.00      64    62.7   999.0
 262    7:40   40.2    91    0.4    84      0.4   821.7    0.00      64    62.7   999.0
 262    7:50   40.4    90    0.7   185      2.9   821.8    0.00      64    62.6   999.0
 262    8:00   41.2    89    0.8   213      3.8   821.8    0.00     182    62.6   999.0
 262    8:10   44.1    85    0.5   230      2.9   821.8    0.00     322    62.7   999.0
 262    8:20   46.3    80    0.4   226      0.4   821.8    0.00     323    62.7   999.0
 262    8:30   48.3    76    0.4   194      0.4   821.8    0.00     305    62.7   999.0
 262    8:40   49.6    74    0.4    97      0.4   821.8    0.00     326    62.8   999.0
 262    8:50   50.4    73    1.4    80      4.6   821.8    0.00     442    62.7   999.0
 262    9:00   51.0    71    3.2    83      7.1   821.8    0.00     451    62.7   999.0
 262    9:10   51.8    69    1.3    90      4.6   821.8    0.00     451    62.7   999.0
 262    9:20   53.7    65    1.2    80      3.8   821.7    0.00     469    62.8   999.0
 262    9:30   56.2    59    0.8    99      3.8   821.6    0.00     514    62.8   999.0
 262    9:40   57.5    58    2.5    73      6.3   821.5    0.00     515    62.8   999.0
 262    9:50   59.3    52    0.4    40      2.1   821.6    0.00     536    62.8   999.0
 262   10:00   61.6    47    0.5   276      2.9   821.5    0.00     547    62.8   999.0
 262   10:10   62.2    46    1.1   218      5.4   821.5    0.00     547    62.8   999.0

Return to Glenshire Elementary graphs page.


Western Regional Climate Center,wrcc@dri.edu